Time;durP1;ratioP1;P1;durP2;ratioP2;P2;SDS_P1;SDS_P2;PMS_P1;PMS_P2;Temp;Humidity;BMP_temperature;BMP_pressure;BME280_temperature;BME280_humidity;BME280_pressure;Samples;Min_cycle;Max_cycle;Signal;HPM_P1;HPM_P2
2022/12/28 00:01:46;;;;;;;6.28;1.75;;;;;;;7.92;100.00;101425.16;5034645;28;20052;-72
2022/12/28 00:04:15;;;;;;;6.90;2.22;;;;;;;7.91;100.00;101437.38;5044963;28;20163;-71
2022/12/28 00:06:42;;;;;;;6.90;1.95;;;;;;;7.88;100.00;101427.06;5042977;28;20051;-71
2022/12/28 00:09:11;;;;;;;0.60;0.60;;;;;;;8.06;100.00;101413.66;5037369;28;20068;-72
2022/12/28 00:11:38;;;;;;;3.25;1.10;;;;;;;8.01;100.00;101426.53;5040309;28;20593;-73
2022/12/28 00:14:04;;;;;;;4.05;1.55;;;;;;;8.09;100.00;101410.19;5045524;28;20369;-72
2022/12/28 00:16:37;;;;;;;2.55;1.33;;;;;;;8.12;100.00;101410.22;5035385;28;20058;-70
2022/12/28 00:19:09;;;;;;;10.65;2.30;;;;;;;8.12;100.00;101410.22;5046559;28;20056;-72
2022/12/28 00:21:35;;;;;;;4.95;1.80;;;;;;;8.15;100.00;101404.00;5041372;28;20055;-72
2022/12/28 00:24:02;;;;;;;4.70;1.58;;;;;;;8.22;100.00;101408.84;5038383;28;20055;-70
2022/12/28 00:26:31;;;;;;;5.80;1.05;;;;;;;8.19;100.00;101404.84;5039770;28;20274;-71
2022/12/28 00:28:59;;;;;;;7.53;2.40;;;;;;;8.29;100.00;101398.78;5040885;28;20049;-72
2022/12/28 00:31:30;;;;;;;4.45;1.88;;;;;;;8.27;100.00;101389.28;5047279;28;20222;-72
2022/12/28 00:33:57;;;;;;;5.57;1.60;;;;;;;8.30;100.00;101392.09;5044705;28;20080;-72
2022/12/28 00:36:24;;;;;;;1.65;1.10;;;;;;;8.37;100.00;101396.97;5040784;28;20048;-72
2022/12/28 00:39:10;;;;;;;2.75;1.05;;;;;;;8.28;100.00;101397.19;5046186;28;20048;-72
2022/12/28 00:41:37;;;;;;;6.32;1.75;;;;;;;8.28;100.00;101410.16;5046097;28;20049;-72
2022/12/28 00:44:03;;;;;;;9.27;2.35;;;;;;;8.34;100.00;101409.53;5047947;28;20706;-72
2022/12/28 00:46:30;;;;;;;4.68;1.77;;;;;;;8.34;100.00;101387.47;5047348;28;20756;-72
2022/12/28 00:48:56;;;;;;;10.27;2.25;;;;;;;8.16;100.00;101393.78;5042915;28;20157;-73
2022/12/28 00:51:23;;;;;;;9.50;2.13;;;;;;;8.37;100.00;101369.38;5047870;28;20462;-72
2022/12/28 00:53:49;;;;;;;8.93;2.25;;;;;;;8.32;100.00;101353.13;5049112;28;20050;-72
2022/12/28 00:56:19;;;;;;;12.38;2.88;;;;;;;8.02;100.00;101366.72;5045411;28;20048;-73
2022/12/28 00:58:45;;;;;;;8.57;2.15;;;;;;;8.03;100.00;101365.53;5043992;28;20064;-73
2022/12/28 01:01:16;;;;;;;9.05;2.10;;;;;;;8.14;100.00;101347.28;5047444;28;20641;-73
2022/12/28 01:03:43;;;;;;;5.40;2.05;;;;;;;8.07;100.00;101341.63;5048805;28;20506;-71
2022/12/28 01:06:16;;;;;;;2.78;1.10;;;;;;;8.09;100.00;101313.72;5045095;28;20075;-71
2022/12/28 01:08:43;;;;;;;4.90;1.67;;;;;;;8.00;100.00;101328.50;5042682;28;20763;-71
2022/12/28 01:11:19;;;;;;;6.45;1.95;;;;;;;7.95;100.00;101334.31;5046975;28;20087;-73
2022/12/28 01:13:47;;;;;;;5.32;1.77;;;;;;;8.03;100.00;101327.78;5049880;28;20052;-72
2022/12/28 01:16:20;;;;;;;6.20;2.42;;;;;;;8.07;100.00;101317.59;5045815;28;20048;-72
2022/12/28 01:18:47;;;;;;;3.28;1.67;;;;;;;8.04;100.00;101299.03;5041331;28;20056;-72
2022/12/28 01:21:16;;;;;;;13.32;1.88;;;;;;;8.03;100.00;101297.44;5047341;28;20052;-71
2022/12/28 01:23:44;;;;;;;6.43;2.25;;;;;;;8.11;100.00;101301.16;5045212;28;20049;-70
2022/12/28 01:26:11;;;;;;;7.35;2.17;;;;;;;8.01;100.00;101294.25;5045091;28;20422;-70
2022/12/28 01:28:38;;;;;;;12.43;3.35;;;;;;;8.09;100.00;101295.19;5047796;28;20040;-71
2022/12/28 01:31:10;;;;;;;2.83;1.30;;;;;;;7.96;100.00;101289.06;5045782;28;20078;-70
2022/12/28 01:33:37;;;;;;;9.68;1.83;;;;;;;7.90;100.00;101290.50;5047321;28;20884;-71
2022/12/28 01:36:06;;;;;;;4.03;1.85;;;;;;;7.87;100.00;101277.47;5045167;28;20063;-71
2022/12/28 01:38:33;;;;;;;5.85;1.85;;;;;;;7.88;100.00;101283.78;5045487;28;20047;-69
2022/12/28 01:40:59;;;;;;;11.25;2.92;;;;;;;7.90;100.00;101270.44;5039241;28;20056;-71
2022/12/28 01:43:46;;;;;;;0.98;0.60;;;;;;;7.82;100.00;101296.25;5046161;28;20058;-71
2022/12/28 01:46:19;;;;;;;3.67;1.60;;;;;;;7.81;100.00;101278.94;5047106;28;20074;-71
2022/12/28 01:48:51;;;;;;;2.92;1.13;;;;;;;7.84;100.00;101271.91;5046388;28;20052;-71
2022/12/28 01:51:20;;;;;;;10.43;2.53;;;;;;;7.87;100.00;101273.94;5044369;28;20717;-71
2022/12/28 01:53:49;;;;;;;6.07;2.33;;;;;;;7.80;100.00;101271.03;5045740;28;20049;-72
2022/12/28 01:56:16;;;;;;;3.95;1.73;;;;;;;7.81;100.00;101248.66;5048632;28;20049;-72
2022/12/28 01:58:44;;;;;;;2.50;1.60;;;;;;;7.75;100.00;101261.13;5045171;28;20051;-69
2022/12/28 02:01:10;;;;;;;6.38;2.25;;;;;;;7.84;100.00;101258.13;5041711;28;20045;-72
2022/12/28 02:03:37;;;;;;;10.02;2.60;;;;;;;7.89;100.00;101242.09;5044108;28;20128;-72
2022/12/28 02:06:08;;;;;;;4.25;1.27;;;;;;;7.90;100.00;101238.16;5045865;28;20055;-68
2022/12/28 02:08:45;;;;;;;4.80;1.38;;;;;;;7.86;100.00;101234.56;5035995;28;20055;-71
2022/12/28 02:11:13;;;;;;;3.40;1.35;;;;;;;7.87;100.00;101230.63;5041389;28;20138;-71
2022/12/28 02:13:43;;;;;;;2.60;1.40;;;;;;;7.84;100.00;101209.31;5041318;28;20056;-71
2022/12/28 02:16:10;;;;;;;2.92;1.33;;;;;;;7.96;100.00;101217.41;5044243;28;20078;-70
2022/12/28 02:18:40;;;;;;;15.13;2.20;;;;;;;8.02;100.00;101215.94;5040868;28;20400;-70
2022/12/28 02:21:07;;;;;;;4.72;1.27;;;;;;;8.10;100.00;101202.28;5041848;28;20130;-70
2022/12/28 02:23:56;;;;;;;2.72;0.65;;;;;;;8.10;100.00;101203.06;5047296;28;20058;-71
2022/12/28 02:26:32;;;;;;;5.97;1.15;;;;;;;8.13;100.00;101179.50;5044641;28;20065;-71
2022/12/28 02:29:22;;;;;;;2.78;1.70;;;;;;;8.07;100.00;101181.78;5043359;28;20045;-71
2022/12/28 02:32:01;;;;;;;5.18;1.30;;;;;;;8.19;100.00;101170.53;5041163;28;20941;-71
2022/12/28 02:34:36;;;;;;;2.78;0.90;;;;;;;8.28;100.00;101171.13;5046477;28;20048;-71
2022/12/28 02:37:35;;;;;;;2.30;1.60;;;;;;;8.28;100.00;101171.13;5044475;28;20052;-71
2022/12/28 02:40:17;;;;;;;2.85;1.42;;;;;;;8.35;100.00;101157.44;5037946;28;20056;-72
2022/12/28 02:42:45;;;;;;;6.13;1.38;;;;;;;8.38;100.00;101147.63;5066450;28;20052;-68
2022/12/28 02:51:35;;;;;;;6.60;1.52;;;;;;;8.42;100.00;101138.22;5067469;28;20688;-70
2022/12/28 02:56:05;;;;;;;3.08;1.60;;;;;;;8.54;100.00;101139.97;5065784;28;20391;-71
2022/12/28 02:57:26;;;;;;;4.05;1.85;;;;;;;8.64;100.00;101134.56;5067099;28;20060;-70
2022/12/28 02:59:55;;;;;;;6.55;1.83;;;;;;;8.76;100.00;101131.59;5064943;28;20431;-71
2022/12/28 03:03:01;;;;;;;6.05;1.67;;;;;;;8.75;100.00;101120.94;5067259;28;20063;-71
2022/12/28 03:08:44;;;;;;;4.15;1.73;;;;;;;8.70;100.00;101133.09;5067167;28;20386;-70
2022/12/28 03:11:16;;;;;;;4.00;1.77;;;;;;;8.75;100.00;101124.50;5068136;28;20056;-70
2022/12/28 03:13:55;;;;;;;0.60;0.60;;;;;;;8.83;100.00;101117.88;5067530;28;20046;-70
2022/12/28 03:16:30;;;;;;;3.63;1.30;;;;;;;8.69;100.00;101109.44;5065288;28;20063;-70
2022/12/28 03:33:05;;;;;;;2.50;1.45;;;;;;;8.34;100.00;101097.94;5067224;28;20631;-69
2022/12/28 03:35:45;;;;;;;6.40;2.17;;;;;;;8.17;100.00;101098.47;5065699;28;20045;-71
2022/12/28 03:38:26;;;;;;;3.63;1.30;;;;;;;8.09;100.00;101082.19;5067789;28;20040;-69
2022/12/28 03:41:07;;;;;;;3.88;1.65;;;;;;;8.11;100.00;101088.09;5067369;28;20052;-70
2022/12/28 03:43:44;;;;;;;3.03;1.33;;;;;;;8.10;100.00;101081.03;5066504;28;20056;-70
2022/12/28 03:46:22;;;;;;;6.50;2.50;;;;;;;8.13;100.00;101083.81;5067471;28;20049;-70
2022/12/28 03:48:50;;;;;;;5.13;2.00;;;;;;;7.97;100.00;101086.72;5067458;28;20048;-70
2022/12/28 03:51:21;;;;;;;8.27;2.20;;;;;;;8.10;100.00;101070.00;5065951;28;20064;-70
2022/12/28 03:53:48;;;;;;;1.95;1.20;;;;;;;8.08;100.00;101062.09;5064801;28;20065;-70
2022/12/28 03:56:17;;;;;;;4.78;2.45;;;;;;;8.13;100.00;101056.25;5065824;28;20671;-70
2022/12/28 03:58:44;;;;;;;5.70;2.03;;;;;;;8.18;100.00;101046.88;5068507;28;20046;-70
2022/12/28 04:01:11;;;;;;;6.97;3.55;;;;;;;8.28;100.00;101036.03;5071214;28;20498;-69
2022/12/28 04:03:38;;;;;;;4.05;1.50;;;;;;;8.22;100.00;101042.22;5069735;28;20090;-70
2022/12/28 04:06:06;;;;;;;3.30;1.25;;;;;;;8.21;100.00;101035.91;5071414;28;20540;-70
2022/12/28 04:08:33;;;;;;;3.63;1.52;;;;;;;8.20;100.00;101039.81;5070932;28;20102;-70
2022/12/28 04:11:00;;;;;;;4.78;2.15;;;;;;;8.15;100.00;101025.56;5075646;28;20056;-71
2022/12/28 04:13:31;;;;;;;8.43;2.03;;;;;;;8.25;100.00;101027.69;5070778;28;20681;-68
2022/12/28 04:16:03;;;;;;;2.83;1.48;;;;;;;8.29;100.00;101032.09;5072744;28;20532;-70
2022/12/28 04:18:31;;;;;;;5.22;2.13;;;;;;;8.22;100.00;101020.97;5071638;28;20101;-73
2022/12/28 04:20:58;;;;;;;8.90;2.53;;;;;;;8.23;100.00;101021.78;5071205;28;20060;-72
2022/12/28 04:23:26;;;;;;;4.00;1.95;;;;;;;8.35;100.00;101019.56;5070474;28;20048;-71
2022/12/28 04:26:00;;;;;;;4.25;2.33;;;;;;;8.22;100.00;101039.47;5068253;28;20136;-70
2022/12/28 04:28:26;;;;;;;3.30;1.98;;;;;;;8.26;100.00;101027.31;5069543;28;20126;-68
2022/12/28 04:30:54;;;;;;;5.85;2.47;;;;;;;8.30;100.00;101008.84;5073903;28;20751;-71
2022/12/28 04:33:21;;;;;;;2.97;1.63;;;;;;;8.25;100.00;100997.38;5063825;28;20044;-69
2022/12/28 04:35:48;;;;;;;4.28;1.73;;;;;;;8.31;100.00;101004.16;5070704;28;20636;-71
2022/12/28 04:38:15;;;;;;;3.03;1.25;;;;;;;8.29;100.00;101012.78;5070064;28;20482;-69
2022/12/28 04:40:42;;;;;;;4.90;1.92;;;;;;;8.23;100.00;101008.00;5070829;28;20051;-71
2022/12/28 04:43:08;;;;;;;3.50;2.05;;;;;;;8.19;100.00;101018.13;5067243;28;20470;-70
2022/12/28 04:45:35;;;;;;;9.55;2.80;;;;;;;8.09;100.00;100999.50;5074063;28;20060;-71
2022/12/28 04:48:02;;;;;;;7.43;2.42;;;;;;;8.14;100.00;100999.97;5070747;28;20171;-69
2022/12/28 04:50:29;;;;;;;6.72;2.40;;;;;;;8.10;100.00;101010.13;5070643;28;20083;-70
2022/12/28 04:52:57;;;;;;;4.55;2.05;;;;;;;8.06;100.00;101006.53;5067738;28;20049;-70
2022/12/28 04:55:23;;;;;;;5.97;2.60;;;;;;;8.07;100.00;100992.38;5072721;28;20605;-70
2022/12/28 04:57:59;;;;;;;6.22;2.63;;;;;;;8.02;100.00;100989.97;5067787;28;20068;-72
2022/12/28 05:00:25;;;;;;;3.92;1.95;;;;;;;8.03;100.00;100982.50;5074036;28;20490;-69
2022/12/28 05:02:52;;;;;;;12.70;3.25;;;;;;;8.01;100.00;100979.31;5071611;28;20058;-69
2022/12/28 05:05:19;;;;;;;7.05;3.05;;;;;;;7.98;100.00;100991.91;5060583;28;20052;-71
2022/12/28 05:07:45;;;;;;;11.02;3.42;;;;;;;7.98;100.00;100982.81;5069991;28;20056;-70
2022/12/28 05:10:12;;;;;;;10.20;2.13;;;;;;;7.93;100.00;100983.13;5070512;28;20044;-70
2022/12/28 05:12:38;;;;;;;10.52;3.40;;;;;;;7.83;100.00;100994.78;5069208;28;20086;-69
2022/12/28 05:15:06;;;;;;;5.70;2.03;;;;;;;7.90;100.00;100990.19;5068948;28;20058;-68
2022/12/28 05:17:32;;;;;;;4.35;2.03;;;;;;;7.88;100.00;100984.28;5070013;28;20045;-69
2022/12/28 05:19:59;;;;;;;4.63;2.03;;;;;;;7.93;100.00;100978.44;5066217;28;20418;-71
2022/12/28 05:22:25;;;;;;;8.45;2.00;;;;;;;8.02;100.00;100983.66;5069469;28;20071;-72
2022/12/28 05:24:52;;;;;;;6.82;2.60;;;;;;;7.99;100.00;100987.16;5068944;28;20048;-69
2022/12/28 05:27:18;;;;;;;5.90;2.92;;;;;;;7.94;100.00;100995.75;5063227;28;20143;-71
2022/12/28 05:29:45;;;;;;;5.07;2.50;;;;;;;7.90;100.00;100989.41;5070984;28;20047;-71
2022/12/28 05:32:11;;;;;;;4.28;1.42;;;;;;;7.97;100.00;100984.78;5069364;28;20045;-69
2022/12/28 05:34:38;;;;;;;7.00;2.28;;;;;;;7.94;100.00;100996.53;5068827;28;20821;-70
2022/12/28 05:37:05;;;;;;;5.35;2.42;;;;;;;7.95;100.00;100989.88;5069739;28;20049;-68
2022/12/28 05:39:31;;;;;;;9.02;2.97;;;;;;;7.88;100.00;100987.03;5069807;28;20047;-70
2022/12/28 05:41:59;;;;;;;4.82;2.97;;;;;;;7.82;100.00;100971.97;5068074;28;20103;-69
2022/12/28 05:44:26;;;;;;;10.60;4.03;;;;;;;7.99;100.00;100976.13;5070199;28;20128;-70
2022/12/28 05:46:53;;;;;;;7.35;3.55;;;;;;;7.93;100.00;100988.66;5070176;28;20140;-72
2022/12/28 05:49:19;;;;;;;5.25;2.25;;;;;;;7.96;100.00;100977.69;5061622;28;20079;-70
2022/12/28 05:51:50;;;;;;;4.97;2.28;;;;;;;7.89;100.00;100971.28;5070001;28;20044;-70
2022/12/28 05:54:17;;;;;;;4.57;1.52;;;;;;;7.90;100.00;100973.66;5067661;28;20056;-70
2022/12/28 05:56:44;;;;;;;10.02;2.55;;;;;;;7.90;100.00;100967.38;5069035;28;20048;-70
2022/12/28 05:59:12;;;;;;;10.93;3.05;;;;;;;8.01;100.00;100960.81;5068963;28;20124;-72
2022/12/28 06:01:42;;;;;;;3.22;1.35;;;;;;;7.99;100.00;100962.38;5060789;28;20052;-69
2022/12/28 06:04:17;;;;;;;11.30;3.03;;;;;;;8.02;100.00;100967.13;5069061;28;20048;-72
2022/12/28 06:06:45;;;;;;;5.88;2.47;;;;;;;7.98;100.00;100961.59;5067854;28;20090;-69
2022/12/28 06:09:12;;;;;;;4.57;2.25;;;;;;;8.00;100.00;100962.00;5069175;28;20040;-67
2022/12/28 06:11:39;;;;;;;3.95;1.55;;;;;;;8.01;100.00;100965.56;5068981;28;20155;-69
2022/12/28 06:14:07;;;;;;;10.13;3.47;;;;;;;8.00;100.00;100963.94;5068031;28;20682;-69
2022/12/28 06:16:36;;;;;;;6.05;2.88;;;;;;;8.02;100.00;100953.34;5066523;28;20055;-70
2022/12/28 06:19:09;;;;;;;4.20;1.60;;;;;;;8.12;100.00;100944.44;5068397;28;20087;-69
2022/12/28 06:21:37;;;;;;;3.45;1.60;;;;;;;8.15;100.00;100946.44;5069486;28;20045;-69
2022/12/28 06:24:05;;;;;;;6.97;2.95;;;;;;;8.18;100.00;100944.88;5063910;28;20052;-72
2022/12/28 06:26:33;;;;;;;4.10;2.10;;;;;;;8.23;100.00;100947.34;5069198;28;20448;-70
2022/12/28 06:29:00;;;;;;;5.53;2.65;;;;;;;8.26;100.00;100939.09;5066886;28;20044;-70
2022/12/28 06:31:33;;;;;;;4.28;1.75;;;;;;;8.25;100.00;100945.00;5070024;28;20041;-72
2022/12/28 06:34:02;;;;;;;5.93;2.45;;;;;;;8.29;100.00;100946.63;5068519;28;20052;-70
2022/12/28 06:36:37;;;;;;;12.15;3.42;;;;;;;8.27;100.00;100946.19;5068432;28;20071;-70
2022/12/28 06:39:06;;;;;;;7.40;2.97;;;;;;;8.34;100.00;100946.31;5068848;28;20048;-69
2022/12/28 06:41:33;;;;;;;5.45;1.67;;;;;;;8.42;100.00;100947.97;5068657;28;20044;-71
2022/12/28 06:44:00;;;;;;;7.20;3.28;;;;;;;8.42;100.00;100952.69;5061777;28;20433;-71
2022/12/28 06:46:29;;;;;;;2.58;1.55;;;;;;;8.48;100.00;100946.47;5065358;28;20053;-70
2022/12/28 06:48:56;;;;;;;9.63;2.92;;;;;;;8.50;100.00;100946.88;5067660;28;20044;-71
2022/12/28 06:51:28;;;;;;;6.18;2.35;;;;;;;8.53;100.00;100948.88;5064353;28;20045;-71
2022/12/28 06:53:55;;;;;;;7.13;3.42;;;;;;;8.63;100.00;100942.66;5067115;28;20696;-70
2022/12/28 06:56:29;;;;;;;9.40;2.75;;;;;;;8.59;100.00;100944.59;5067876;28;20045;-69
2022/12/28 06:58:56;;;;;;;8.60;2.47;;;;;;;8.56;100.00;100939.84;5070306;28;20040;-71
2022/12/28 07:01:30;;;;;;;10.57;4.40;;;;;;;8.48;100.00;100953.94;5067350;28;20460;-71
2022/12/28 07:03:58;;;;;;;15.20;1.90;;;;;;;8.63;100.00;100933.59;5052304;28;20063;-71
2022/12/28 07:06:27;;;;;;;5.90;2.53;;;;;;;8.56;100.00;100939.84;5066288;28;20045;-71
2022/12/28 07:08:59;;;;;;;6.22;2.08;;;;;;;8.60;100.00;100931.63;5067617;28;20788;-70
2022/12/28 07:11:26;;;;;;;8.70;2.42;;;;;;;8.66;100.00;100930.09;5059269;28;20067;-70
2022/12/28 07:13:52;;;;;;;3.78;2.08;;;;;;;8.62;100.00;100938.34;5064094;28;20068;-71
2022/12/28 07:16:21;;;;;;;7.88;3.08;;;;;;;8.61;100.00;100942.25;5064551;28;20055;-71
2022/12/28 07:18:48;;;;;;;4.82;2.30;;;;;;;8.58;100.00;100937.50;5065940;28;20041;-71
2022/12/28 07:21:20;;;;;;;8.73;2.42;;;;;;;8.67;100.00;100937.97;5063110;28;20045;-72
2022/12/28 07:23:48;;;;;;;7.10;2.03;;;;;;;8.71;100.00;100943.53;5065361;28;20139;-70
2022/12/28 07:26:19;;;;;;;6.50;2.10;;;;;;;8.68;100.00;100930.50;5064756;28;20045;-71
2022/12/28 07:28:48;;;;;;;6.55;2.20;;;;;;;8.70;100.00;100926.19;5071454;28;20036;-72
2022/12/28 07:31:17;;;;;;;5.72;2.47;;;;;;;8.77;100.00;100925.47;5067362;28;20044;-71
2022/12/28 07:33:45;;;;;;;5.05;1.50;;;;;;;8.74;100.00;100935.28;5068542;28;20067;-72
2022/12/28 07:36:14;;;;;;;5.53;2.25;;;;;;;8.76;100.00;100932.16;5067125;28;20047;-72
2022/12/28 07:38:41;;;;;;;7.18;1.52;;;;;;;8.80;100.00;100924.69;5070208;28;20041;-71
2022/12/28 07:41:13;;;;;;;9.13;3.15;;;;;;;8.77;100.00;100920.75;5065337;28;20363;-72
2022/12/28 07:43:40;;;;;;;4.63;2.17;;;;;;;8.88;100.00;100920.84;5067134;28;20132;-71
2022/12/28 07:46:17;;;;;;;6.78;2.65;;;;;;;8.92;100.00;100916.94;5067245;28;20103;-69
2022/12/28 07:48:44;;;;;;;;;;;;;;;8.92;100.00;100924.44;5068498;28;20048;-71
2022/12/28 07:51:17;;;;;;;5.18;2.10;;;;;;;8.84;100.00;100909.75;5066371;28;20716;-71
2022/12/28 07:53:46;;;;;;;11.18;3.80;;;;;;;8.85;100.00;100916.88;5076302;28;20104;-72
2022/12/28 07:56:13;;;;;;;2.22;1.60;;;;;;;8.90;100.00;100916.53;5072675;28;20079;-70
2022/12/28 07:58:40;;;;;;;7.93;3.08;;;;;;;8.90;100.00;100922.03;5067414;28;20051;-71
2022/12/28 08:01:09;;;;;;;7.07;2.88;;;;;;;8.93;100.00;100918.53;5065463;28;20386;-71
2022/12/28 08:03:36;;;;;;;8.02;3.33;;;;;;;9.01;100.00;100917.41;5066748;28;20044;-71
2022/12/28 08:06:08;;;;;;;8.48;2.85;;;;;;;8.91;100.00;100909.06;5065833;28;20048;-72
2022/12/28 08:08:37;;;;;;;6.70;2.88;;;;;;;8.93;100.00;100921.28;5066216;28;20048;-70
2022/12/28 08:11:06;;;;;;;3.90;1.75;;;;;;;8.98;100.00;100901.59;5066502;28;20048;-70
2022/12/28 08:13:34;;;;;;;4.85;2.17;;;;;;;8.93;100.00;100913.00;5026207;28;20052;-72
2022/12/28 08:16:01;;;;;;;7.95;2.72;;;;;;;8.95;100.00;100912.63;5040320;28;20040;-70
2022/12/28 08:18:28;;;;;;;7.68;2.63;;;;;;;8.98;100.00;100929.19;5038807;28;20047;-72
2022/12/28 08:21:03;;;;;;;8.43;3.20;;;;;;;9.03;100.00;100908.75;5043718;28;20221;-73
2022/12/28 08:23:30;;;;;;;6.40;2.63;;;;;;;9.02;100.00;100912.69;5038270;28;20064;-72
2022/12/28 08:26:25;;;;;;;4.55;1.95;;;;;;;8.99;100.00;100914.25;5033687;28;20059;-72
2022/12/28 08:28:55;;;;;;;7.60;3.00;;;;;;;8.94;100.00;100911.81;5032939;28;20045;-71
2022/12/28 08:31:25;;;;;;;9.50;3.15;;;;;;;9.06;100.00;100924.53;5037329;28;20067;-71
2022/12/28 08:33:53;;;;;;;6.32;1.98;;;;;;;9.06;100.00;100914.31;5036754;28;21193;-71
2022/12/28 08:36:19;;;;;;;5.90;1.67;;;;;;;9.10;100.00;100923.41;5039105;28;20808;-73
2022/12/28 08:38:47;;;;;;;1.60;1.17;;;;;;;9.14;100.00;100913.19;5033935;28;20061;-72
2022/12/28 08:41:16;;;;;;;9.52;3.63;;;;;;;9.12;100.00;100921.06;5043323;28;20056;-71
2022/12/28 08:43:43;;;;;;;1.33;1.23;;;;;;;9.08;100.00;100914.69;5040435;28;20745;-71
2022/12/28 08:46:17;;;;;;;2.67;1.60;;;;;;;9.10;100.00;100920.63;5041638;28;20053;-71
2022/12/28 08:48:44;;;;;;;10.13;4.82;;;;;;;9.13;100.00;100919.88;5049754;28;20051;-73
2022/12/28 08:51:15;;;;;;;9.77;3.83;;;;;;;9.19;100.00;100932.16;5048764;28;20045;-73
2022/12/28 08:53:42;;;;;;;11.55;4.22;;;;;;;9.21;100.00;100917.97;5047173;28;20040;-69
2022/12/28 08:56:29;;;;;;;8.35;3.08;;;;;;;9.26;100.00;100910.13;5048115;28;20049;-70
2022/12/28 08:58:58;;;;;;;10.32;3.20;;;;;;;9.29;100.00;100903.84;5049560;28;20048;-70
2022/12/28 09:01:30;;;;;;;4.78;2.80;;;;;;;9.37;100.00;100910.19;5045610;28;20087;-71
2022/12/28 09:04:04;;;;;;;2.20;1.52;;;;;;;9.44;100.00;100905.50;5044621;28;20048;-72
2022/12/28 09:06:34;;;;;;;3.88;1.80;;;;;;;9.47;100.00;100907.50;5047220;28;20047;-70
2022/12/28 09:09:02;;;;;;;7.07;1.92;;;;;;;9.57;100.00;100909.53;5047161;28;20123;-72
2022/12/28 09:11:36;;;;;;;6.75;2.30;;;;;;;9.55;100.00;100909.13;5046114;28;20775;-72
2022/12/28 09:14:07;;;;;;;7.07;1.67;;;;;;;9.58;100.00;100908.34;5041164;28;20566;-73
2022/12/28 09:16:34;;;;;;;5.32;2.08;;;;;;;9.60;100.00;100908.78;5045010;28;20214;-73
2022/12/28 09:19:03;;;;;;;4.22;1.90;;;;;;;9.61;100.00;100904.81;5042016;28;20055;-72
2022/12/28 09:21:33;;;;;;;4.50;2.05;;;;;;;9.76;100.00;100902.94;5040271;28;20043;-71
2022/12/28 09:24:00;;;;;;;3.15;1.88;;;;;;;9.75;100.00;100895.81;5045041;28;20052;-69
2022/12/28 09:26:30;;;;;;;5.22;1.58;;;;;;;9.77;100.00;100918.31;5045145;28;20044;-70
2022/12/28 09:28:59;;;;;;;2.25;0.95;;;;;;;9.83;100.00;100911.25;5045053;28;20071;-71
2022/12/28 09:31:28;;;;;;;7.07;1.95;;;;;;;9.81;100.00;100921.91;5045378;28;20139;-72
2022/12/28 09:33:57;;;;;;;5.78;2.47;;;;;;;9.87;100.00;100901.81;5046493;28;20089;-70
2022/12/28 09:36:44;;;;;;;3.75;1.13;;;;;;;9.95;100.00;100910.91;5042642;28;20048;-70
2022/12/28 09:39:15;;;;;;;7.57;2.55;;;;;;;9.93;100.00;100924.34;5047793;28;20884;-71
2022/12/28 09:41:44;;;;;;;3.95;1.63;;;;;;;9.95;100.00;100906.19;5039699;28;20036;-72
2022/12/28 09:44:32;;;;;;;3.53;1.55;;;;;;;9.95;100.00;100905.38;5045634;28;20611;-73
2022/12/28 09:47:23;;;;;;;2.72;0.77;;;;;;;10.03;100.00;100912.53;5046519;28;20060;-72
2022/12/28 09:50:12;;;;;;;4.57;2.03;;;;;;;10.10;100.00;100902.31;5048303;28;20702;-72
2022/12/28 09:52:57;;;;;;;6.32;1.83;;;;;;;10.10;100.00;100896.78;5046123;28;20052;-70
2022/12/28 09:55:24;;;;;;;10.23;3.58;;;;;;;10.21;100.00;100896.81;5043298;28;20066;-72
2022/12/28 09:57:54;;;;;;;10.50;3.30;;;;;;;10.17;100.00;100891.25;5045886;28;20055;-71
2022/12/28 10:00:29;;;;;;;13.70;4.53;;;;;;;10.16;100.00;100884.16;5039177;28;20047;-71
2022/12/28 10:03:00;;;;;;;18.70;7.55;;;;;;;10.29;100.00;100882.63;5044291;28;20657;-72
2022/12/28 10:05:28;;;;;;;15.40;4.30;;;;;;;10.26;100.00;100888.16;5041949;28;21902;-70
2022/12/28 10:07:58;;;;;;;5.75;2.47;;;;;;;10.33;100.00;100894.47;5043178;28;20036;-72
2022/12/28 10:10:25;;;;;;;2.47;1.10;;;;;;;10.42;100.00;100885.81;5045149;28;20047;-71
2022/12/28 10:12:53;;;;;;;0.70;0.70;;;;;;;10.41;100.00;100879.50;5043074;28;20047;-71
2022/12/28 10:15:26;;;;;;;5.93;1.65;;;;;;;10.38;100.00;100888.59;5039531;28;20060;-70
2022/12/28 10:17:52;;;;;;;4.60;1.08;;;;;;;10.52;100.00;100862.91;5044663;28;20044;-70
2022/12/28 10:20:21;;;;;;;2.33;1.45;;;;;;;10.53;100.00;100876.34;5045962;28;20051;-73
2022/12/28 10:22:51;;;;;;;5.63;2.15;;;;;;;10.58;100.00;100861.34;5038090;28;20048;-71
2022/12/28 10:25:21;;;;;;;2.72;0.90;;;;;;;10.64;100.00;100858.97;5038121;28;20060;-71
2022/12/28 10:27:48;;;;;;;3.53;0.98;;;;;;;10.61;100.00;100865.28;5037837;28;20056;-71
2022/12/28 10:30:26;;;;;;;4.93;1.50;;;;;;;10.61;100.00;100868.06;5035604;28;20051;-71
2022/12/28 10:32:58;;;;;;;1.13;1.02;;;;;;;10.59;100.00;100882.28;5038814;28;20044;-71
2022/12/28 10:35:35;;;;;;;1.40;1.00;;;;;;;10.69;100.00;100855.84;5032814;28;20048;-72
2022/12/28 10:38:04;;;;;;;5.45;1.67;;;;;;;10.65;100.00;100866.09;5036455;28;20045;-71
2022/12/28 10:40:35;;;;;;;1.00;0.90;;;;;;;10.69;100.00;100853.84;5032531;28;21958;-71
2022/12/28 10:43:03;;;;;;;1.05;0.80;;;;;;;10.75;100.00;100852.25;5045063;28;20060;-71
2022/12/28 10:45:44;;;;;;;4.97;1.83;;;;;;;10.73;100.00;100851.09;5043696;28;20044;-71
2022/12/28 10:48:20;;;;;;;3.85;1.40;;;;;;;10.78;100.00;100853.44;5037748;28;20159;-72
2022/12/28 10:50:47;;;;;;;3.20;1.52;;;;;;;10.74;100.00;100831.31;5040839;28;20041;-71
2022/12/28 10:53:25;;;;;;;1.40;0.85;;;;;;;10.91;100.00;100840.78;5040166;28;20045;-72
2022/12/28 10:56:04;;;;;;;1.80;1.17;;;;;;;10.87;100.00;100834.47;5042336;28;20064;-72
2022/12/28 10:58:32;;;;;;;2.47;1.10;;;;;;;10.90;100.00;100855.84;5045539;28;20883;-73
2022/12/28 11:01:06;;;;;;;1.08;0.68;;;;;;;10.92;100.00;100831.28;5035775;28;20686;-70
2022/12/28 11:03:37;;;;;;;2.55;0.82;;;;;;;10.92;100.00;100826.56;5030072;28;20056;-70
2022/12/28 11:06:11;;;;;;;1.88;1.00;;;;;;;10.96;100.00;100826.53;5034862;28;20130;-70
2022/12/28 11:08:39;;;;;;;1.70;0.75;;;;;;;10.98;100.00;100821.41;5040422;28;20817;-72
2022/12/28 11:11:14;;;;;;;1.90;1.08;;;;;;;10.98;100.00;100813.09;5034346;28;20052;-70
2022/12/28 11:13:44;;;;;;;3.20;1.42;;;;;;;10.97;100.00;100822.59;5039183;28;20734;-73
2022/12/28 11:16:12;;;;;;;3.58;1.17;;;;;;;10.96;100.00;100824.56;5040930;28;20049;-72
2022/12/28 11:18:40;;;;;;;3.22;1.60;;;;;;;11.00;100.00;100810.72;5040272;28;20052;-72
2022/12/28 11:21:10;;;;;;;3.10;1.20;;;;;;;11.13;100.00;100806.38;5041903;28;20048;-73
2022/12/28 11:23:37;;;;;;;8.80;1.30;;;;;;;11.07;100.00;100788.56;5038718;28;20045;-71
2022/12/28 11:26:08;;;;;;;4.68;1.33;;;;;;;11.10;100.00;100794.09;5039118;28;20045;-73
2022/12/28 11:28:34;;;;;;;6.07;1.35;;;;;;;11.20;100.00;100790.50;5046857;28;20359;-73
2022/12/28 11:31:03;;;;;;;8.43;2.42;;;;;;;11.22;100.00;100788.13;5044576;28;20040;-72
2022/12/28 11:33:44;;;;;;;19.02;3.75;;;;;;;11.09;100.00;100798.06;5037001;28;20048;-70
2022/12/28 11:36:19;;;;;;;15.85;3.72;;;;;;;11.18;100.00;100783.78;5043453;28;20048;-70
2022/12/28 11:38:48;;;;;;;4.80;2.15;;;;;;;11.23;100.00;100783.38;5037917;28;20165;-70
2022/12/28 11:41:23;;;;;;;10.43;2.75;;;;;;;11.23;100.00;100770.31;5043226;28;20102;-71
2022/12/28 11:44:08;;;;;;;12.60;3.20;;;;;;;11.20;100.00;100781.44;5037744;28;20052;-71
2022/12/28 11:46:37;;;;;;;5.50;2.00;;;;;;;11.28;100.00;100772.69;5041265;28;20048;-70
2022/12/28 11:49:22;;;;;;;0.68;0.68;;;;;;;11.26;100.00;100774.25;5035860;28;20128;-70
2022/12/28 11:52:26;;;;;;;3.42;1.50;;;;;;;11.26;100.00;100766.75;5042635;28;20095;-69
2022/12/28 11:54:55;;;;;;;5.57;1.75;;;;;;;11.28;100.00;100774.66;5041105;28;20775;-72
2022/12/28 11:57:39;;;;;;;3.65;1.33;;;;;;;11.31;100.00;100743.41;5040784;28;20048;-70
2022/12/28 12:00:18;;;;;;;4.53;1.60;;;;;;;11.33;100.00;100765.94;5039537;28;20845;-70
2022/12/28 12:03:00;;;;;;;3.95;1.63;;;;;;;11.33;100.00;100777.00;5035923;28;20183;-73